createdAt,value
2023-03-10T00:01:14.476Z,9.02
2023-03-10T00:03:43.357Z,7.68
2023-03-10T00:06:15.037Z,6.97
2023-03-10T00:08:43.666Z,5.88
2023-03-10T00:11:12.285Z,7.97
2023-03-10T00:13:40.923Z,7.72
2023-03-10T00:16:09.961Z,10.52
2023-03-10T00:18:38.900Z,5.93
2023-03-10T00:21:07.738Z,7.63
2023-03-10T00:23:37.704Z,8.85
2023-03-10T00:26:06.601Z,6.10
2023-03-10T00:28:35.183Z,6.85
2023-03-10T00:31:05.670Z,6.53
2023-03-10T00:33:35.572Z,7.43
2023-03-10T00:36:09.730Z,6.50
2023-03-10T00:38:40.226Z,5.97
2023-03-10T00:41:10.037Z,7.40
2023-03-10T00:43:38.617Z,7.50
2023-03-10T00:46:07.521Z,7.70
2023-03-10T00:48:36.416Z,6.50
2023-03-10T00:51:05.461Z,5.28
2023-03-10T00:53:35.031Z,6.95
2023-03-10T00:56:08.072Z,6.72
2023-03-10T00:58:36.794Z,6.45
2023-03-10T01:01:06.081Z,5.32
2023-03-10T01:03:34.672Z,6.82
2023-03-10T01:06:03.355Z,8.75
2023-03-10T01:08:31.965Z,5.13
2023-03-10T01:11:00.642Z,5.85
2023-03-10T01:13:30.851Z,5.70
2023-03-10T01:15:59.446Z,6.55
2023-03-10T01:18:28.309Z,5.45
2023-03-10T01:20:56.831Z,5.45
2023-03-10T01:23:26.510Z,5.30
2023-03-10T01:25:55.356Z,5.05
2023-03-10T01:28:24.387Z,5.85
2023-03-10T01:30:54.455Z,6.10
2023-03-10T01:33:23.105Z,7.25
2023-03-10T01:35:51.807Z,6.95
2023-03-10T01:38:20.464Z,6.68
2023-03-10T01:40:50.096Z,6.68
2023-03-10T01:43:34.923Z,5.60
2023-03-10T01:46:48.231Z,6.53
2023-03-10T01:49:25.738Z,4.78
2023-03-10T01:52:01.342Z,6.20
2023-03-10T01:54:34.076Z,5.47
2023-03-10T01:57:03.991Z,7.05
2023-03-10T01:59:32.863Z,5.53
2023-03-10T02:02:02.889Z,6.05
2023-03-10T02:04:36.791Z,6.32
2023-03-10T02:07:06.486Z,4.35
2023-03-10T02:09:38.347Z,5.82
2023-03-10T02:12:08.274Z,5.03
2023-03-10T02:14:36.964Z,10.10
2023-03-10T02:17:07.451Z,5.03
2023-03-10T02:19:52.879Z,6.00
2023-03-10T02:22:21.446Z,5.25
2023-03-10T02:24:53.247Z,5.15
2023-03-10T02:27:27.420Z,5.13
2023-03-10T02:30:00.346Z,4.50
2023-03-10T02:32:29.637Z,4.25
2023-03-10T02:34:58.279Z,4.93
2023-03-10T02:37:28.192Z,4.70
2023-03-10T02:39:56.855Z,5.43
2023-03-10T02:42:28.931Z,5.38
2023-03-10T02:44:57.686Z,4.15
2023-03-10T02:47:26.360Z,4.55
2023-03-10T02:49:54.928Z,4.18
2023-03-10T02:52:28.308Z,4.45
2023-03-10T02:54:56.972Z,5.25
2023-03-10T02:57:27.051Z,7.20
2023-03-10T02:59:55.867Z,5.03
2023-03-10T03:02:24.628Z,4.47
2023-03-10T03:04:53.165Z,5.32
2023-03-10T03:07:21.885Z,4.75
2023-03-10T03:09:50.467Z,4.05
2023-03-10T03:12:19.282Z,4.10
2023-03-10T03:14:49.403Z,5.93
2023-03-10T03:17:17.911Z,4.85
2023-03-10T03:19:46.636Z,4.05
2023-03-10T03:22:15.441Z,4.00
2023-03-10T03:24:44.435Z,4.88
2023-03-10T03:27:13.013Z,3.90
2023-03-10T03:29:41.775Z,3.42
2023-03-10T03:32:11.957Z,3.30
2023-03-10T03:35:22.993Z,4.07
2023-03-10T03:37:52.008Z,3.70
2023-03-10T03:40:21.111Z,3.70
2023-03-10T03:42:50.690Z,3.92
2023-03-10T03:45:20.582Z,3.92
2023-03-10T03:47:50.939Z,3.13
2023-03-10T03:50:19.969Z,3.67
2023-03-10T03:52:48.708Z,3.70
2023-03-10T03:55:17.944Z,3.85
2023-03-10T03:57:46.504Z,4.03
2023-03-10T04:00:18.433Z,3.42
2023-03-10T04:02:47.319Z,3.78
2023-03-10T04:05:17.417Z,4.05
2023-03-10T04:07:46.275Z,3.17
2023-03-10T04:10:17.292Z,4.88
2023-03-10T04:12:45.809Z,3.40
2023-03-10T04:15:14.676Z,3.80
2023-03-10T04:17:43.371Z,4.32
2023-03-10T04:20:13.592Z,3.50
2023-03-10T04:22:43.651Z,3.33
2023-03-10T04:25:12.520Z,5.05
2023-03-10T04:27:41.118Z,3.78
2023-03-10T04:30:12.238Z,3.33
2023-03-10T04:32:40.914Z,3.17
2023-03-10T04:35:12.802Z,5.68
2023-03-10T04:37:44.909Z,3.35
2023-03-10T04:40:15.418Z,3.53
2023-03-10T04:42:44.113Z,4.03
2023-03-10T04:45:13.116Z,2.75
2023-03-10T04:47:41.655Z,3.63
2023-03-10T04:50:12.145Z,3.30
2023-03-10T04:52:42.144Z,3.05
2023-03-10T04:55:11.901Z,3.78
2023-03-10T04:57:40.421Z,4.18
2023-03-10T05:00:12.658Z,3.25
2023-03-10T05:02:41.651Z,4.05
2023-03-10T05:05:11.287Z,3.00
2023-03-10T05:07:40.150Z,3.40
2023-03-10T05:10:11.871Z,3.58
2023-03-10T05:12:42.282Z,3.45
2023-03-10T05:15:12.010Z,3.10
2023-03-10T05:17:40.691Z,3.20
2023-03-10T05:20:11.081Z,3.10
2023-03-10T05:22:40.016Z,3.13
2023-03-10T05:25:11.622Z,3.08
2023-03-10T05:27:40.583Z,4.60
2023-03-10T05:30:12.008Z,2.83
2023-03-10T05:32:40.609Z,3.22
2023-03-10T05:35:10.263Z,2.95
2023-03-10T05:37:39.549Z,3.05
2023-03-10T05:40:13.650Z,3.22
2023-03-10T05:42:42.399Z,3.35
2023-03-10T05:45:12.885Z,2.88
2023-03-10T05:47:41.439Z,3.10
2023-03-10T05:50:12.004Z,2.90
2023-03-10T05:52:41.130Z,3.05
2023-03-10T05:55:14.181Z,3.40
2023-03-10T05:57:43.118Z,2.97
2023-03-10T06:00:13.398Z,3.75
2023-03-10T06:02:42.151Z,3.47
2023-03-10T06:05:12.776Z,5.38
2023-03-10T06:07:41.573Z,3.88
2023-03-10T06:10:12.787Z,3.00
2023-03-10T06:12:41.908Z,5.43
2023-03-10T06:15:11.530Z,6.28
2023-03-10T06:17:40.292Z,4.68
2023-03-10T06:20:09.762Z,6.32
2023-03-10T06:22:38.481Z,5.55
2023-03-10T06:25:08.387Z,3.55
2023-03-10T06:27:38.436Z,3.33
2023-03-10T06:30:08.918Z,2.90
2023-03-10T06:32:37.687Z,6.20
2023-03-10T06:35:07.165Z,3.63
2023-03-10T06:37:35.934Z,4.28
2023-03-10T06:40:08.132Z,4.57
2023-03-10T06:42:38.276Z,8.57
2023-03-10T06:45:08.452Z,3.85
2023-03-10T06:47:37.039Z,11.52
2023-03-10T06:50:07.041Z,8.70
2023-03-10T06:52:36.027Z,4.93
2023-03-10T06:55:04.895Z,6.47
2023-03-10T06:57:33.527Z,6.93
2023-03-10T07:00:05.211Z,6.47
2023-03-10T07:02:33.981Z,3.72
2023-03-10T07:05:02.709Z,3.95
2023-03-10T07:07:31.417Z,5.05
2023-03-10T07:10:00.325Z,5.40
2023-03-10T07:12:28.908Z,5.32
2023-03-10T07:14:57.475Z,5.20
2023-03-10T07:17:27.510Z,11.75
2023-03-10T07:19:56.265Z,3.15
2023-03-10T07:22:25.021Z,3.33
2023-03-10T07:24:56.104Z,4.97
2023-03-10T07:27:24.639Z,2.88
2023-03-10T07:29:53.206Z,9.00
2023-03-10T07:32:21.916Z,10.13
2023-03-10T07:34:52.356Z,9.10
2023-03-10T07:37:20.955Z,6.82
2023-03-10T07:39:49.998Z,14.10
2023-03-10T07:42:18.541Z,9.13
2023-03-10T07:44:47.305Z,7.72
2023-03-10T07:47:15.932Z,8.93
2023-03-10T07:49:47.095Z,7.95
2023-03-10T07:52:18.301Z,17.08
2023-03-10T07:54:47.135Z,15.60
2023-03-10T07:57:16.135Z,13.77
2023-03-10T07:59:45.828Z,9.90
2023-03-10T08:02:14.982Z,8.77
2023-03-10T08:04:43.683Z,9.70
2023-03-10T08:07:12.231Z,8.60
2023-03-10T08:09:42.165Z,14.65
2023-03-10T08:12:11.475Z,20.83
2023-03-10T08:14:40.276Z,10.90
2023-03-10T08:17:08.797Z,7.85
2023-03-10T08:19:39.148Z,6.68
2023-03-10T08:22:07.997Z,7.40
2023-03-10T08:24:38.019Z,5.85
2023-03-10T08:27:08.184Z,8.30
2023-03-10T08:29:36.785Z,5.28
2023-03-10T08:32:05.839Z,6.10
2023-03-10T08:34:35.599Z,6.07
2023-03-10T08:37:04.795Z,8.77
2023-03-10T08:39:33.453Z,5.22
2023-03-10T08:42:02.129Z,9.45
2023-03-10T08:44:32.143Z,7.05
2023-03-10T08:47:01.210Z,5.47
2023-03-10T08:49:29.986Z,13.15
2023-03-10T08:52:00.128Z,7.22
2023-03-10T08:54:31.263Z,7.80
2023-03-10T08:57:01.134Z,6.20
2023-03-10T08:59:31.109Z,13.00
2023-03-10T09:02:00.053Z,15.30
2023-03-10T09:04:29.236Z,11.18
2023-03-10T09:06:57.791Z,8.25
2023-03-10T09:09:26.631Z,16.52
2023-03-10T09:11:55.291Z,10.98
2023-03-10T09:14:23.833Z,19.95
2023-03-10T09:16:53.940Z,13.27
2023-03-10T09:19:22.656Z,13.75
2023-03-10T09:21:51.194Z,13.55
2023-03-10T09:24:20.061Z,22.17
2023-03-10T09:26:49.006Z,13.57
2023-03-10T09:29:17.542Z,15.05
2023-03-10T09:31:48.312Z,11.88
2023-03-10T09:34:18.498Z,14.20
2023-03-10T09:36:47.308Z,13.73
2023-03-10T09:39:15.923Z,12.60
2023-03-10T09:42:38.887Z,12.80
2023-03-10T09:45:35.313Z,12.80
2023-03-10T09:48:26.460Z,10.70
2023-03-10T09:50:57.079Z,15.52
2023-03-10T09:53:49.875Z,14.32
2023-03-10T09:56:20.388Z,11.25
2023-03-10T09:58:50.432Z,8.75
2023-03-10T10:01:21.523Z,11.73
2023-03-10T10:03:53.320Z,8.63
2023-03-10T10:06:28.298Z,12.52
2023-03-10T10:09:04.617Z,11.27
2023-03-10T10:11:34.497Z,9.50
2023-03-10T10:14:31.324Z,10.45
2023-03-10T10:17:09.944Z,27.27
2023-03-10T10:19:39.924Z,22.95
2023-03-10T10:22:19.743Z,16.58
2023-03-10T10:25:08.326Z,14.13
2023-03-10T10:27:37.190Z,14.52
2023-03-10T10:30:31.473Z,13.18
2023-03-10T10:33:00.944Z,13.85
2023-03-10T10:35:31.481Z,12.88
2023-03-10T10:38:03.456Z,9.55
2023-03-10T10:40:34.459Z,11.18
2023-03-10T10:43:05.920Z,11.57
2023-03-10T10:45:36.558Z,12.88
2023-03-10T10:48:05.985Z,11.35
2023-03-10T10:50:35.347Z,10.60
2023-03-10T10:53:20.875Z,9.48
2023-03-10T10:56:00.724Z,11.57
2023-03-10T10:58:32.204Z,13.32
2023-03-10T11:01:02.384Z,19.40
2023-03-10T11:03:33.750Z,17.58
2023-03-10T11:06:03.107Z,14.70
2023-03-10T11:08:40.633Z,11.50
2023-03-10T11:11:19.883Z,19.00
2023-03-10T11:14:07.535Z,15.93
2023-03-10T11:16:44.440Z,19.67
2023-03-10T11:19:18.828Z,20.58
2023-03-10T11:21:48.762Z,20.40
2023-03-10T11:24:24.546Z,15.77
2023-03-10T11:26:59.052Z,17.00
2023-03-10T11:29:46.029Z,16.83
2023-03-10T11:32:20.487Z,18.58
2023-03-10T11:34:51.848Z,15.02
2023-03-10T11:37:27.383Z,15.15
2023-03-10T11:40:08.788Z,16.38
2023-03-10T11:42:40.474Z,18.13
2023-03-10T11:45:21.821Z,18.65
2023-03-10T11:47:58.290Z,15.10
2023-03-10T11:50:35.580Z,13.93
2023-03-10T11:53:07.110Z,12.25
2023-03-10T11:55:37.108Z,17.45
2023-03-10T11:58:06.017Z,16.05
2023-03-10T12:00:37.678Z,14.95
2023-03-10T12:03:14.390Z,15.73
2023-03-10T12:05:50.066Z,12.20
2023-03-10T12:08:19.341Z,13.77
2023-03-10T12:10:49.543Z,12.55
2023-03-10T12:13:24.565Z,11.30
2023-03-10T12:15:56.023Z,10.98
2023-03-10T12:18:26.871Z,10.27
2023-03-10T12:21:21.737Z,11.07
2023-03-10T12:23:51.261Z,12.00
2023-03-10T12:27:03.986Z,13.20
2023-03-10T12:29:41.671Z,10.30
2023-03-10T12:32:43.038Z,10.23
2023-03-10T12:35:42.503Z,10.15
2023-03-10T12:38:39.314Z,10.57
2023-03-10T12:41:07.995Z,9.95
2023-03-10T12:43:59.604Z,9.95
2023-03-10T12:46:45.386Z,9.80
2023-03-10T12:49:27.529Z,9.93
2023-03-10T12:52:01.196Z,12.05
2023-03-10T12:54:55.426Z,9.07
2023-03-10T12:57:29.955Z,10.23
2023-03-10T13:00:06.325Z,6.18
2023-03-10T13:02:38.808Z,7.28
2023-03-10T13:05:17.068Z,8.27
2023-03-10T13:07:47.616Z,7.32
2023-03-10T13:10:18.361Z,7.78
2023-03-10T13:12:49.466Z,7.07
2023-03-10T13:15:28.536Z,7.82
2023-03-10T13:18:10.715Z,7.70
2023-03-10T13:20:39.851Z,11.20
2023-03-10T13:23:19.769Z,7.78
2023-03-10T13:25:54.432Z,9.40
2023-03-10T13:28:23.242Z,7.32
2023-03-10T13:30:53.216Z,8.68
2023-03-10T13:33:25.732Z,7.50
2023-03-10T13:35:54.850Z,8.15
2023-03-10T13:38:24.682Z,7.10
2023-03-10T13:41:01.109Z,10.55
2023-03-10T13:43:37.213Z,7.28
2023-03-10T13:46:09.986Z,8.50
2023-03-10T13:48:38.890Z,8.30
2023-03-10T13:51:14.461Z,7.65
2023-03-10T13:53:43.317Z,7.65
2023-03-10T13:56:21.860Z,6.03
2023-03-10T13:58:53.444Z,5.75
2023-03-10T14:01:25.373Z,7.55
2023-03-10T14:03:56.525Z,6.13
2023-03-10T14:06:26.509Z,7.65
2023-03-10T14:08:55.474Z,6.85
2023-03-10T14:11:42.242Z,7.13
2023-03-10T14:14:12.049Z,7.32
2023-03-10T14:16:53.347Z,5.88
2023-03-10T14:19:52.049Z,6.95
2023-03-10T14:22:26.303Z,6.15
2023-03-10T14:24:55.122Z,5.40
2023-03-10T14:27:24.777Z,6.82
2023-03-10T14:29:55.362Z,6.80
2023-03-10T14:32:25.857Z,7.40
2023-03-10T14:34:54.769Z,6.55
2023-03-10T14:37:24.014Z,9.57
2023-03-10T14:39:52.736Z,7.80
2023-03-10T14:42:30.798Z,8.48
2023-03-10T14:44:59.868Z,8.88
2023-03-10T14:47:30.387Z,8.00
2023-03-10T14:49:59.252Z,9.35
2023-03-10T14:52:27.898Z,10.00
2023-03-10T14:54:56.730Z,6.75
2023-03-10T14:57:27.631Z,9.40
2023-03-10T14:59:57.227Z,6.57
2023-03-10T15:02:29.055Z,9.70
2023-03-10T15:04:59.225Z,7.88
2023-03-10T15:07:28.467Z,8.52
2023-03-10T15:10:10.712Z,7.85
2023-03-10T15:12:40.377Z,7.45
2023-03-10T15:15:16.848Z,7.75
2023-03-10T15:17:45.845Z,7.78
2023-03-10T15:20:18.184Z,7.18
2023-03-10T15:22:46.873Z,7.25
2023-03-10T15:25:16.066Z,8.13
2023-03-10T15:27:45.850Z,5.53
2023-03-10T15:30:18.795Z,5.90
2023-03-10T15:32:47.469Z,8.98
2023-03-10T15:35:17.663Z,7.20
2023-03-10T15:37:46.420Z,5.65
2023-03-10T15:40:18.012Z,8.02
2023-03-10T15:42:47.151Z,6.68
2023-03-10T15:45:15.713Z,7.07
2023-03-10T15:47:44.261Z,7.32
2023-03-10T15:50:14.292Z,7.50
2023-03-10T15:52:48.441Z,11.13
2023-03-10T15:55:17.400Z,6.13
2023-03-10T15:57:48.071Z,5.75
2023-03-10T16:00:18.176Z,5.07
2023-03-10T16:02:46.862Z,8.13
2023-03-10T16:05:15.936Z,6.28
2023-03-10T16:07:44.636Z,7.70
2023-03-10T16:10:16.797Z,9.27
2023-03-10T16:12:45.472Z,13.25
2023-03-10T16:15:16.940Z,7.32
2023-03-10T16:17:46.842Z,5.38
2023-03-10T16:20:17.063Z,9.23
2023-03-10T16:22:45.864Z,9.75
2023-03-10T16:25:16.605Z,5.72
2023-03-10T16:27:45.636Z,8.30
2023-03-10T16:30:15.792Z,7.18
2023-03-10T16:32:46.374Z,6.13
2023-03-10T16:35:15.225Z,7.40
2023-03-10T16:37:44.033Z,9.68
2023-03-10T16:40:15.843Z,8.93
2023-03-10T16:42:46.336Z,14.73
2023-03-10T16:45:15.198Z,12.75
2023-03-10T16:47:44.425Z,19.23
2023-03-10T16:50:14.466Z,10.35
2023-03-10T16:52:43.798Z,20.92
2023-03-10T16:55:17.450Z,21.13
2023-03-10T16:57:46.441Z,33.92
2023-03-10T17:00:21.068Z,27.25
2023-03-10T17:02:50.034Z,33.42
2023-03-10T17:05:18.952Z,20.35
2023-03-10T17:07:55.416Z,27.23
2023-03-10T17:10:26.920Z,22.70
2023-03-10T17:12:55.798Z,30.35
2023-03-10T17:15:24.728Z,34.83
2023-03-10T17:17:53.259Z,32.28
2023-03-10T17:20:22.008Z,29.75
2023-03-10T17:22:50.649Z,34.33
2023-03-10T17:25:19.235Z,38.10
2023-03-10T17:27:49.271Z,70.13
2023-03-10T17:30:20.061Z,48.95
2023-03-10T17:32:50.428Z,43.40
2023-03-10T17:35:19.257Z,44.13
2023-03-10T17:37:47.902Z,54.17
2023-03-10T17:40:18.966Z,56.65
2023-03-10T17:42:49.048Z,53.78
2023-03-10T17:45:17.772Z,43.13
2023-03-10T17:47:46.511Z,35.38
2023-03-10T17:50:15.159Z,41.85
2023-03-10T17:52:43.741Z,44.75
2023-03-10T17:55:12.633Z,50.75
2023-03-10T17:57:41.348Z,32.15
2023-03-10T18:00:17.402Z,38.70
2023-03-10T18:02:47.191Z,43.70
2023-03-10T18:05:17.068Z,33.10
2023-03-10T18:07:46.124Z,37.83
2023-03-10T18:10:14.792Z,42.28
2023-03-10T18:12:43.371Z,34.65
2023-03-10T18:15:14.422Z,40.70
2023-03-10T18:17:43.202Z,50.78
2023-03-10T18:20:15.368Z,44.42
2023-03-10T18:22:44.161Z,30.92
2023-03-10T18:25:15.415Z,31.35
2023-03-10T18:27:44.138Z,35.67
2023-03-10T18:30:15.180Z,38.70
2023-03-10T18:32:44.188Z,26.35
2023-03-10T18:35:13.660Z,31.27
2023-03-10T18:37:42.284Z,29.42
2023-03-10T18:40:15.893Z,36.75
2023-03-10T18:42:44.602Z,26.08
2023-03-10T18:45:14.780Z,35.17
2023-03-10T18:47:45.215Z,30.02
2023-03-10T18:50:15.309Z,31.10
2023-03-10T18:52:44.046Z,32.45
2023-03-10T18:55:13.055Z,28.13
2023-03-10T18:57:42.048Z,22.25
2023-03-10T19:00:15.692Z,24.17
2023-03-10T19:02:44.530Z,18.67
2023-03-10T19:05:14.288Z,30.08
2023-03-10T19:07:43.353Z,23.55
2023-03-10T19:10:14.969Z,18.98
2023-03-10T19:12:43.685Z,21.35
2023-03-10T19:15:14.877Z,22.58
2023-03-10T19:17:43.615Z,26.95
2023-03-10T19:20:14.105Z,28.60
2023-03-10T19:22:43.342Z,30.65
2023-03-10T19:25:13.247Z,21.33
2023-03-10T19:27:42.360Z,17.73
2023-03-10T19:30:12.957Z,25.42
2023-03-10T19:32:43.422Z,24.23
2023-03-10T19:35:12.572Z,24.20
2023-03-10T19:37:42.998Z,16.33
2023-03-10T19:40:14.836Z,26.25
2023-03-10T19:42:43.950Z,19.95
2023-03-10T19:45:13.726Z,21.73
2023-03-10T19:47:44.019Z,19.65
2023-03-10T19:50:13.715Z,19.27
2023-03-10T19:52:45.202Z,24.05
2023-03-10T19:55:17.265Z,20.42
2023-03-10T19:57:45.889Z,22.00
2023-03-10T20:00:17.419Z,18.02
2023-03-10T20:02:47.531Z,20.48
2023-03-10T20:05:16.324Z,19.73
2023-03-10T20:07:46.490Z,17.00
2023-03-10T20:10:15.353Z,19.40
2023-03-10T20:12:44.148Z,15.02
2023-03-10T20:15:12.650Z,17.08
2023-03-10T20:17:41.422Z,21.65
2023-03-10T20:20:15.283Z,14.55
2023-03-10T20:22:45.575Z,17.73
2023-03-10T20:25:15.517Z,14.70
2023-03-10T20:27:44.255Z,18.40
2023-03-10T20:30:16.879Z,18.10
2023-03-10T20:32:45.638Z,11.65
2023-03-10T20:35:15.758Z,21.55
2023-03-10T20:37:44.380Z,13.68
2023-03-10T20:40:15.159Z,11.50
2023-03-10T20:42:43.956Z,12.85
2023-03-10T20:45:12.808Z,8.52
2023-03-10T20:47:41.610Z,13.00
2023-03-10T20:50:11.672Z,11.82
2023-03-10T20:52:43.542Z,10.85
2023-03-10T20:55:19.739Z,11.07
2023-03-10T20:57:48.519Z,12.60
2023-03-10T21:00:18.712Z,18.73
2023-03-10T21:02:47.579Z,10.13
2023-03-10T21:05:16.456Z,10.90
2023-03-10T21:07:46.469Z,14.13
2023-03-10T21:10:15.815Z,9.70
2023-03-10T21:12:44.554Z,14.68
2023-03-10T21:15:15.188Z,11.95
2023-03-10T21:17:43.860Z,12.68
2023-03-10T21:20:15.486Z,12.18
2023-03-10T21:22:45.503Z,13.35
2023-03-10T21:25:16.791Z,12.15
2023-03-10T21:27:47.509Z,15.32
2023-03-10T21:30:17.216Z,13.98
2023-03-10T21:32:45.934Z,11.85
2023-03-10T21:35:14.771Z,12.35
2023-03-10T21:37:46.874Z,11.63
2023-03-10T21:40:18.136Z,8.13
2023-03-10T21:42:46.842Z,12.23
2023-03-10T21:45:16.747Z,11.30
2023-03-10T21:47:45.447Z,12.05
2023-03-10T21:50:14.437Z,9.90
2023-03-10T21:52:43.231Z,7.10
2023-03-10T21:55:17.510Z,9.07
2023-03-10T21:57:46.212Z,11.25
2023-03-10T22:00:15.645Z,10.00
2023-03-10T22:02:44.264Z,11.45
2023-03-10T22:05:14.047Z,9.75
2023-03-10T22:07:43.016Z,9.80
2023-03-10T22:10:14.919Z,8.77
2023-03-10T22:12:43.635Z,9.95
2023-03-10T22:15:16.325Z,8.48
2023-03-10T22:17:45.115Z,9.77
2023-03-10T22:20:16.306Z,9.07
2023-03-10T22:22:45.046Z,8.77
2023-03-10T22:25:15.077Z,9.60
2023-03-10T22:27:43.743Z,9.63
2023-03-10T22:30:14.539Z,6.93
2023-03-10T22:32:43.215Z,7.88
2023-03-10T22:35:12.020Z,8.05
2023-03-10T22:37:40.888Z,9.48
2023-03-10T22:40:11.166Z,8.27
2023-03-10T22:42:41.196Z,9.57
2023-03-10T22:45:15.744Z,7.28
2023-03-10T22:47:44.544Z,6.15
2023-03-10T22:50:14.886Z,7.53
2023-03-10T22:52:43.673Z,6.53
2023-03-10T22:55:15.181Z,7.43
2023-03-10T22:57:48.223Z,7.57
2023-03-10T23:00:19.806Z,9.50
2023-03-10T23:02:48.594Z,7.93
2023-03-10T23:05:17.315Z,11.80
2023-03-10T23:07:46.496Z,7.70
2023-03-10T23:10:18.704Z,7.32
2023-03-10T23:12:49.227Z,7.45
2023-03-10T23:15:26.418Z,7.40
2023-03-10T23:17:55.182Z,7.93
2023-03-10T23:20:27.467Z,8.65
2023-03-10T23:22:56.620Z,6.78
2023-03-10T23:25:29.025Z,7.65
2023-03-10T23:27:59.072Z,6.78
2023-03-10T23:30:27.663Z,8.90
2023-03-10T23:32:56.426Z,5.68
2023-03-10T23:35:27.284Z,7.72
2023-03-10T23:37:56.221Z,7.20
2023-03-10T23:40:27.160Z,7.95
2023-03-10T23:42:56.015Z,6.63
2023-03-10T23:45:27.525Z,5.70
2023-03-10T23:47:56.641Z,6.15
2023-03-10T23:50:27.349Z,8.02
2023-03-10T23:52:56.130Z,6.85
2023-03-10T23:55:26.426Z,6.50
2023-03-10T23:57:55.259Z,6.05
